Terminal Aerodrome Forecast
Issued by NWS State College, PA

Home | Current Version | Previous Version | Text Only | Print | Product List | Glossary On
Versions: 1 2 3 4 5 6 7 8 9 10 11 12 13 14 15 16 17 18 19 20 21 22 23 24 25 26
000
FTUS41 KCTP 300533
TAFMDT
TAF
KMDT 300533Z 3006/3106 VRB03KT P6SM SCT100
     FM301000 35002KT 5SM BR SCT100
     FM301500 13002KT 6SM HZ VCSH BKN050 OVC100
     FM301900 13005KT 5SM -SHRA BR VCTS OVC050CB
     FM310400 14004KT 3SM BR VCSH OVC020=

USA.gov is the U.S. government's official web portal to all federal, state and local government web resources and services.